createdAt,value
2022-08-28T00:01:38.955Z,16.57
2022-08-28T00:21:38.911Z,16.18
2022-08-28T00:41:38.863Z,15.68
2022-08-28T01:01:38.957Z,15.17
2022-08-28T01:21:38.787Z,14.95
2022-08-28T01:41:38.746Z,14.95
2022-08-28T02:01:38.806Z,14.85
2022-08-28T02:21:38.669Z,14.44
2022-08-28T02:41:38.629Z,13.95
2022-08-28T03:01:38.653Z,13.47
2022-08-28T03:21:38.543Z,12.88
2022-08-28T03:41:38.504Z,12.5
2022-08-28T04:01:38.532Z,12.29
2022-08-28T04:21:38.437Z,12.27
2022-08-28T04:41:38.409Z,12.26
2022-08-28T05:01:38.371Z,12.66
2022-08-28T05:21:38.323Z,12.95
2022-08-28T05:41:38.276Z,13.08
2022-08-28T06:01:38.274Z,13.44
2022-08-28T06:21:38.212Z,13.92
2022-08-28T06:41:38.175Z,14.44
2022-08-28T07:01:38.207Z,15.68
2022-08-28T07:21:38.348Z,17.31
2022-08-28T07:41:38.052Z,17.76
2022-08-28T08:01:38.072Z,17.65
2022-08-28T08:21:37.978Z,18.83
2022-08-28T08:41:37.953Z,19.57
2022-08-28T09:01:37.904Z,21.27
2022-08-28T09:21:37.853Z,22.11
2022-08-28T09:41:37.828Z,22.33
2022-08-28T10:01:37.842Z,22.86
2022-08-28T10:21:37.709Z,23.21
2022-08-28T10:41:37.684Z,21.95
2022-08-28T11:01:37.727Z,22.77
2022-08-28T11:21:37.591Z,23.99
2022-08-28T11:41:37.549Z,23.94
2022-08-28T12:01:37.506Z,23.67
2022-08-28T12:21:37.463Z,23.86
2022-08-28T12:41:37.425Z,24.38
2022-08-28T13:01:37.493Z,25.08
2022-08-28T13:21:37.365Z,24.68
2022-08-28T13:41:37.360Z,26.01
2022-08-28T14:01:40.137Z,25.32
2022-08-28T14:21:37.222Z,26.08
2022-08-28T14:41:37.186Z,24.08
2022-08-28T15:01:39.728Z,24.47
2022-08-28T15:21:37.088Z,24.1
2022-08-28T15:41:37.043Z,24.03
2022-08-28T16:01:37.063Z,23.99
2022-08-28T16:21:36.963Z,23.37
2022-08-28T16:41:36.933Z,23.32
2022-08-28T17:01:36.988Z,22.94
2022-08-28T18:01:36.775Z,20.75
2022-08-28T18:21:36.699Z,19.84
2022-08-28T19:01:36.659Z,18.53
2022-08-28T20:01:36.546Z,16.87
2022-08-28T20:41:36.415Z,15.96
2022-08-28T21:01:36.452Z,15.31
2022-08-28T21:21:36.373Z,14.75
2022-08-28T21:41:36.295Z,14.19
2022-08-28T22:01:36.324Z,13.38
2022-08-28T22:21:36.219Z,12.78
2022-08-28T22:41:36.183Z,12.24
2022-08-28T23:01:36.155Z,11.75
2022-08-28T23:21:36.119Z,11.23
2022-08-28T23:41:36.079Z,10.27
